createdAt,value
2018-08-10T00:01:47.810Z,12.37
2018-08-10T00:04:14.860Z,10.50
2018-08-10T00:06:41.853Z,11.00
2018-08-10T00:09:10.266Z,9.37
2018-08-10T00:11:37.283Z,9.90
2018-08-10T00:14:04.332Z,9.67
2018-08-10T00:16:31.367Z,9.87
2018-08-10T00:18:58.372Z,9.90
2018-08-10T00:21:25.687Z,9.13
2018-08-10T00:23:52.701Z,9.37
2018-08-10T00:26:19.685Z,9.67
2018-08-10T00:28:46.792Z,9.27
2018-08-10T00:31:13.811Z,9.67
2018-08-10T00:33:40.875Z,9.50
2018-08-10T00:36:07.888Z,9.37
2018-08-10T00:38:34.991Z,10.23
2018-08-10T00:41:02.054Z,10.50
2018-08-10T00:43:29.121Z,10.60
2018-08-10T00:45:56.200Z,9.40
2018-08-10T00:48:23.231Z,9.80
2018-08-10T00:50:50.495Z,9.30
2018-08-10T00:53:17.510Z,9.90
2018-08-10T00:55:44.551Z,9.57
2018-08-10T00:58:11.615Z,9.67
2018-08-10T01:00:38.604Z,9.63
2018-08-10T01:03:05.608Z,9.70
2018-08-10T01:05:32.610Z,9.33
2018-08-10T01:07:59.615Z,9.70
2018-08-10T01:10:26.560Z,9.67
2018-08-10T01:12:53.533Z,9.60
2018-08-10T01:15:20.460Z,9.03
2018-08-10T01:17:47.481Z,9.43
2018-08-10T01:20:17.461Z,10.37
2018-08-10T01:22:50.304Z,9.70
2018-08-10T01:25:18.239Z,9.30
2018-08-10T01:27:51.118Z,7.70
2018-08-10T01:30:18.095Z,8.93
2018-08-10T01:32:45.118Z,8.80
2018-08-10T01:35:12.172Z,7.23
2018-08-10T01:37:39.162Z,8.10
2018-08-10T01:40:06.689Z,8.27
2018-08-10T01:42:33.853Z,7.90
2018-08-10T01:45:00.908Z,8.43
2018-08-10T01:47:27.958Z,7.57
2018-08-10T01:49:54.959Z,7.73
2018-08-10T01:52:21.963Z,7.37
2018-08-10T01:54:48.915Z,7.30
2018-08-10T01:57:15.893Z,7.40
2018-08-10T01:59:43.004Z,6.10
2018-08-10T02:02:09.972Z,6.77
2018-08-10T02:04:36.956Z,6.93
2018-08-10T02:07:04.238Z,6.30
2018-08-10T02:09:31.267Z,6.90
2018-08-10T02:11:58.283Z,5.70
2018-08-10T02:14:25.304Z,6.10
2018-08-10T02:16:52.323Z,5.90
2018-08-10T02:19:19.316Z,6.27
2018-08-10T02:21:46.644Z,7.23
2018-08-10T02:24:13.651Z,6.80
2018-08-10T02:26:40.687Z,6.17
2018-08-10T02:29:07.689Z,6.07
2018-08-10T02:31:34.690Z,6.03
2018-08-10T02:34:01.666Z,5.67
2018-08-10T02:36:28.693Z,5.73
2018-08-10T02:38:55.629Z,6.13
2018-08-10T02:41:22.606Z,5.77
2018-08-10T02:43:49.597Z,6.27
2018-08-10T02:46:16.574Z,5.43
2018-08-10T02:48:43.576Z,5.30
2018-08-10T02:51:10.589Z,6.10
2018-08-10T02:53:37.538Z,5.60
2018-08-10T02:56:04.522Z,5.10
2018-08-10T02:58:31.567Z,4.83
2018-08-10T03:00:58.516Z,4.80
2018-08-10T03:03:25.562Z,4.80
2018-08-10T03:05:52.556Z,4.77
2018-08-10T03:08:19.603Z,4.67
2018-08-10T03:10:46.591Z,4.53
2018-08-10T03:13:13.577Z,4.50
2018-08-10T03:15:40.633Z,5.23
2018-08-10T03:18:07.648Z,4.70
2018-08-10T03:20:34.999Z,4.63
2018-08-10T03:23:01.985Z,3.90
2018-08-10T03:25:28.954Z,4.20
2018-08-10T03:27:55.928Z,4.13
2018-08-10T03:30:22.944Z,3.70
2018-08-10T03:32:49.909Z,4.10
2018-08-10T03:35:16.964Z,4.63
2018-08-10T03:37:43.974Z,4.20
2018-08-10T03:40:12.512Z,3.80
2018-08-10T03:42:39.526Z,4.40
2018-08-10T03:45:07.023Z,3.67
2018-08-10T03:47:34.067Z,4.60
2018-08-10T03:50:01.085Z,3.60
2018-08-10T03:52:28.036Z,3.27
2018-08-10T03:54:55.151Z,4.70
2018-08-10T03:57:22.192Z,3.90
2018-08-10T03:59:49.222Z,3.90
2018-08-10T04:02:16.257Z,3.70
2018-08-10T04:04:43.280Z,4.40
2018-08-10T04:07:10.255Z,4.00
2018-08-10T04:09:37.254Z,4.30
2018-08-10T04:12:04.935Z,3.80
2018-08-10T04:14:31.949Z,3.60
2018-08-10T04:16:58.932Z,4.63
2018-08-10T04:19:26.254Z,3.93
2018-08-10T04:21:53.358Z,3.60
2018-08-10T04:24:20.333Z,3.50
2018-08-10T04:26:47.362Z,4.90
2018-08-10T04:29:14.382Z,4.50
2018-08-10T04:31:41.427Z,3.50
2018-08-10T04:34:08.499Z,4.77
2018-08-10T04:36:35.486Z,4.13
2018-08-10T04:39:03.717Z,4.13
2018-08-10T04:41:30.722Z,3.87
2018-08-10T04:43:57.748Z,3.90
2018-08-10T04:46:24.781Z,3.83
2018-08-10T04:48:51.821Z,4.00
2018-08-10T04:51:18.855Z,3.70
2018-08-10T04:53:45.834Z,3.97
2018-08-10T04:56:12.827Z,3.50
2018-08-10T04:58:39.908Z,3.97
2018-08-10T05:01:06.878Z,3.43
2018-08-10T05:03:34.231Z,3.37
2018-08-10T05:06:01.145Z,2.63
2018-08-10T05:08:28.125Z,3.40
2018-08-10T05:10:55.126Z,3.07
2018-08-10T05:13:22.161Z,3.03
2018-08-10T05:15:49.245Z,3.63
2018-08-10T05:18:16.160Z,3.00
2018-08-10T05:20:43.162Z,2.73
2018-08-10T05:23:10.142Z,3.00
2018-08-10T05:25:37.139Z,3.70
2018-08-10T05:28:04.142Z,3.80
2018-08-10T05:30:31.098Z,3.73
2018-08-10T05:32:58.088Z,3.00
2018-08-10T05:35:25.034Z,2.63
2018-08-10T05:37:52.018Z,2.50
2018-08-10T05:40:18.977Z,2.70
2018-08-10T05:42:45.939Z,5.73
2018-08-10T05:45:12.958Z,3.73
2018-08-10T05:47:39.942Z,2.80
2018-08-10T05:50:07.184Z,3.17
2018-08-10T05:52:34.382Z,13.17
2018-08-10T05:55:01.287Z,3.80
2018-08-10T05:57:28.350Z,2.10
2018-08-10T05:59:55.338Z,2.00
2018-08-10T06:02:22.306Z,2.10
2018-08-10T06:04:49.295Z,1.43
2018-08-10T06:07:16.299Z,1.80
2018-08-10T06:09:43.297Z,2.27
2018-08-10T06:12:10.336Z,1.67
2018-08-10T06:14:37.405Z,1.97
2018-08-10T06:17:04.511Z,1.33
2018-08-10T06:19:31.717Z,1.40
2018-08-10T06:21:58.693Z,1.80
2018-08-10T06:24:25.827Z,1.43
2018-08-10T06:26:52.913Z,0.93
2018-08-10T06:29:20.033Z,1.60
2018-08-10T06:31:47.416Z,1.43
2018-08-10T06:34:14.569Z,2.00
2018-08-10T06:36:41.635Z,1.37
2018-08-10T06:39:08.988Z,1.10
2018-08-10T06:41:36.052Z,1.33
2018-08-10T06:44:03.416Z,1.50
2018-08-10T06:46:30.376Z,1.20
2018-08-10T06:48:57.458Z,1.40
2018-08-10T06:51:24.413Z,1.10
2018-08-10T06:53:51.502Z,1.33
2018-08-10T06:56:18.838Z,1.17
2018-08-10T06:58:45.811Z,1.43
2018-08-10T07:01:12.871Z,2.93
2018-08-10T07:03:39.945Z,1.20
2018-08-10T07:06:06.908Z,1.60
2018-08-10T07:08:34.025Z,2.13
2018-08-10T07:11:01.140Z,2.50
2018-08-10T07:13:56.003Z,1.60
2018-08-10T07:16:23.026Z,1.90
2018-08-10T07:18:50.005Z,1.27
2018-08-10T07:21:17.023Z,2.63
2018-08-10T07:23:44.133Z,1.07
2018-08-10T07:26:11.510Z,1.10
2018-08-10T07:28:40.009Z,1.30
2018-08-10T07:31:07.065Z,1.10
2018-08-10T07:33:34.088Z,1.00
2018-08-10T07:36:01.265Z,1.10
2018-08-10T07:38:28.348Z,1.33
2018-08-10T07:40:55.369Z,2.20
2018-08-10T07:43:22.435Z,1.17
2018-08-10T07:45:49.519Z,1.77
2018-08-10T07:48:16.645Z,1.27
2018-08-10T07:50:43.669Z,2.00
2018-08-10T07:53:10.746Z,1.70
2018-08-10T07:55:37.784Z,1.43
2018-08-10T07:58:04.889Z,1.27
2018-08-10T08:00:31.880Z,1.33
2018-08-10T08:02:58.868Z,1.50
2018-08-10T08:05:25.973Z,1.53
2018-08-10T08:07:53.363Z,1.33
2018-08-10T08:10:20.373Z,2.37
2018-08-10T08:12:47.415Z,1.57
2018-08-10T08:15:14.532Z,1.70
2018-08-10T08:17:41.590Z,1.57
2018-08-10T08:20:08.861Z,1.30
2018-08-10T08:22:35.924Z,1.70
2018-08-10T08:25:03.535Z,1.17
2018-08-10T08:27:30.584Z,1.70
2018-08-10T08:29:57.613Z,2.40
2018-08-10T08:32:25.111Z,3.43
2018-08-10T08:34:52.402Z,2.10
2018-08-10T08:37:19.347Z,3.80
2018-08-10T08:40:21.971Z,1.63
2018-08-10T08:42:49.733Z,2.40
2018-08-10T08:45:31.549Z,1.80
2018-08-10T08:47:58.715Z,1.30
2018-08-10T08:50:25.784Z,1.30
2018-08-10T08:52:52.825Z,1.40
2018-08-10T08:55:29.715Z,1.40
2018-08-10T08:57:56.795Z,1.53
2018-08-10T09:00:23.825Z,1.57
2018-08-10T09:02:50.898Z,1.93
2018-08-10T09:05:17.903Z,1.40
2018-08-10T09:07:45.018Z,1.90
2018-08-10T09:10:14.270Z,1.40
2018-08-10T09:12:41.550Z,1.60
2018-08-10T09:15:10.592Z,3.00
2018-08-10T09:17:38.088Z,1.90
2018-08-10T09:20:05.992Z,1.50
2018-08-10T09:22:33.054Z,2.00
2018-08-10T09:25:00.134Z,1.67
2018-08-10T09:27:27.194Z,1.63
2018-08-10T09:29:54.204Z,1.57
2018-08-10T09:32:21.235Z,1.50
2018-08-10T09:34:48.270Z,1.73
2018-08-10T09:37:15.363Z,1.50
2018-08-10T09:39:42.718Z,1.30
2018-08-10T09:42:09.722Z,1.90
2018-08-10T09:44:36.831Z,1.50
2018-08-10T09:47:04.577Z,2.60
2018-08-10T09:49:36.195Z,1.63
2018-08-10T09:52:03.355Z,2.30
2018-08-10T09:54:30.479Z,1.63
2018-08-10T09:56:59.945Z,2.00
2018-08-10T09:59:27.084Z,2.57
2018-08-10T10:02:00.404Z,1.50
2018-08-10T10:04:27.501Z,1.90
2018-08-10T10:06:54.603Z,1.43
2018-08-10T10:09:21.700Z,1.10
2018-08-10T10:11:48.794Z,1.90
2018-08-10T10:14:15.965Z,1.43
2018-08-10T10:16:43.160Z,2.60
2018-08-10T10:19:10.258Z,5.63
2018-08-10T10:21:37.435Z,3.17
2018-08-10T10:24:04.815Z,2.27
2018-08-10T10:26:31.973Z,2.30
2018-08-10T10:28:59.120Z,2.30
2018-08-10T10:31:26.234Z,2.07
2018-08-10T10:33:53.334Z,2.77
2018-08-10T10:36:20.446Z,2.20
2018-08-10T10:38:47.615Z,2.67
2018-08-10T10:41:14.682Z,2.23
2018-08-10T10:43:41.861Z,2.40
2018-08-10T10:46:08.964Z,1.73
2018-08-10T10:48:36.061Z,1.83
2018-08-10T10:51:03.215Z,2.07
2018-08-10T10:53:30.340Z,1.77
2018-08-10T10:55:57.475Z,1.87
2018-08-10T10:58:24.887Z,1.60
2018-08-10T11:00:52.094Z,1.60
2018-08-10T11:03:19.156Z,1.50
2018-08-10T11:05:46.281Z,2.20
2018-08-10T11:08:13.549Z,1.70
2018-08-10T11:10:40.698Z,2.10
2018-08-10T11:13:07.838Z,1.73
2018-08-10T11:15:34.951Z,1.53
2018-08-10T11:18:02.129Z,1.20
2018-08-10T11:20:29.272Z,2.13
2018-08-10T11:22:56.573Z,2.57
2018-08-10T11:25:23.786Z,2.10
2018-08-10T11:27:50.785Z,2.03
2018-08-10T11:30:17.977Z,1.87
2018-08-10T11:32:45.078Z,4.47
2018-08-10T11:35:12.207Z,1.90
2018-08-10T11:37:39.308Z,3.80
2018-08-10T11:40:08.184Z,1.80
2018-08-10T11:42:35.367Z,2.70
2018-08-10T11:45:02.849Z,2.87
2018-08-10T11:47:29.966Z,2.23
2018-08-10T11:49:57.133Z,3.00
2018-08-10T11:52:24.259Z,2.60
2018-08-10T11:54:51.412Z,1.80
2018-08-10T11:57:19.169Z,3.83
2018-08-10T11:59:46.290Z,2.27
2018-08-10T12:02:13.439Z,1.97
2018-08-10T12:04:40.607Z,2.77
2018-08-10T12:07:07.729Z,2.53
2018-08-10T12:09:34.800Z,3.23
2018-08-10T12:12:01.984Z,2.07
2018-08-10T12:14:29.145Z,2.30
2018-08-10T12:16:56.301Z,2.00
2018-08-10T12:19:23.525Z,2.43
2018-08-10T12:21:50.718Z,2.10
2018-08-10T12:24:17.950Z,1.90
2018-08-10T12:26:45.127Z,2.13
2018-08-10T12:29:12.302Z,2.47
2018-08-10T12:31:39.459Z,2.47
2018-08-10T12:34:06.632Z,3.37
2018-08-10T12:36:33.809Z,2.60
2018-08-10T12:39:00.941Z,3.80
2018-08-10T12:41:28.078Z,2.53
2018-08-10T12:43:55.346Z,2.07
2018-08-10T12:46:22.767Z,3.10
2018-08-10T12:48:49.913Z,3.37
2018-08-10T12:51:17.028Z,1.67
2018-08-10T12:53:44.116Z,3.43
2018-08-10T12:56:11.225Z,2.90
2018-08-10T12:58:38.390Z,1.50
2018-08-10T13:01:05.459Z,1.53
2018-08-10T13:03:32.684Z,1.93
2018-08-10T13:05:59.798Z,2.30
2018-08-10T13:08:26.934Z,4.07
2018-08-10T13:10:54.123Z,5.00
2018-08-10T13:13:21.288Z,5.87
2018-08-10T13:15:48.397Z,2.37
2018-08-10T13:18:23.324Z,2.60
2018-08-10T13:20:50.419Z,2.47
2018-08-10T13:23:17.444Z,3.67
2018-08-10T13:25:44.517Z,3.50
2018-08-10T13:28:11.617Z,3.50
2018-08-10T13:30:38.701Z,2.20
2018-08-10T13:33:05.732Z,2.70
2018-08-10T13:35:32.986Z,1.80
2018-08-10T13:37:59.992Z,2.73
2018-08-10T13:40:27.135Z,2.00
2018-08-10T13:42:54.204Z,1.90
2018-08-10T13:45:21.259Z,1.60
2018-08-10T13:47:48.378Z,2.77
2018-08-10T13:50:15.956Z,3.50
2018-08-10T13:52:43.282Z,2.23
2018-08-10T13:55:11.506Z,1.17
2018-08-10T13:57:38.589Z,4.03
2018-08-10T14:00:05.809Z,1.40
2018-08-10T14:02:32.873Z,2.97
2018-08-10T14:05:00.327Z,2.53
2018-08-10T14:07:27.404Z,1.47
2018-08-10T14:09:54.477Z,1.40
2018-08-10T14:12:21.545Z,1.10
2018-08-10T14:14:48.628Z,1.33
2018-08-10T14:17:15.708Z,1.53
2018-08-10T14:19:42.869Z,1.30
2018-08-10T14:22:09.995Z,2.30
2018-08-10T14:24:37.078Z,2.03
2018-08-10T14:27:04.318Z,1.60
2018-08-10T14:29:31.391Z,1.80
2018-08-10T14:31:58.578Z,1.40
2018-08-10T14:34:25.706Z,1.57
2018-08-10T14:36:52.893Z,1.97
2018-08-10T14:39:20.071Z,1.50
2018-08-10T14:41:47.199Z,1.60
2018-08-10T14:44:14.314Z,1.10
2018-08-10T14:46:41.343Z,1.43
2018-08-10T14:49:08.720Z,1.87
2018-08-10T14:51:35.993Z,1.50
2018-08-10T14:54:04.212Z,1.77
2018-08-10T14:56:31.288Z,1.50
2018-08-10T14:58:58.818Z,1.80
2018-08-10T15:01:25.894Z,1.80
2018-08-10T15:03:53.209Z,1.57
2018-08-10T15:06:20.386Z,2.20
2018-08-10T15:08:47.687Z,2.07
2018-08-10T15:11:15.089Z,1.60
2018-08-10T15:13:42.342Z,1.30
2018-08-10T15:16:09.577Z,1.67
2018-08-10T15:18:36.877Z,1.80
2018-08-10T15:21:04.111Z,1.73
2018-08-10T15:23:31.364Z,0.90
2018-08-10T15:25:58.532Z,1.57
2018-08-10T15:28:26.729Z,1.87
2018-08-10T15:30:54.839Z,2.10
2018-08-10T15:33:23.255Z,2.03
2018-08-10T15:35:51.132Z,1.17
2018-08-10T15:38:18.216Z,1.40
2018-08-10T15:40:46.662Z,2.03
2018-08-10T15:43:13.768Z,2.07
2018-08-10T15:45:41.209Z,2.20
2018-08-10T15:48:08.822Z,1.70
2018-08-10T15:50:37.061Z,1.27
2018-08-10T15:53:04.226Z,1.03
2018-08-10T15:55:31.257Z,1.40
2018-08-10T15:57:58.653Z,1.50
2018-08-10T16:00:25.789Z,1.87
2018-08-10T16:02:52.868Z,2.00
2018-08-10T16:05:20.031Z,1.80
2018-08-10T16:07:47.151Z,1.50
2018-08-10T16:10:14.237Z,1.63
2018-08-10T16:12:41.308Z,1.23
2018-08-10T16:15:10.518Z,1.23
2018-08-10T16:17:37.641Z,1.50
2018-08-10T16:20:05.051Z,1.53
2018-08-10T16:22:32.179Z,1.47
2018-08-10T16:24:59.264Z,1.60
2018-08-10T16:27:26.605Z,1.60
2018-08-10T16:29:53.691Z,1.50
2018-08-10T16:32:20.756Z,1.17
2018-08-10T16:34:47.893Z,1.90
2018-08-10T16:37:15.018Z,2.60
2018-08-10T16:39:42.096Z,3.20
2018-08-10T16:42:09.256Z,2.70
2018-08-10T16:44:36.577Z,2.53
2018-08-10T16:47:03.604Z,2.93
2018-08-10T16:49:30.789Z,2.20
2018-08-10T16:51:57.875Z,2.97
2018-08-10T16:54:24.969Z,5.40
2018-08-10T16:56:52.049Z,4.37
2018-08-10T16:59:19.221Z,4.70
2018-08-10T17:01:46.432Z,2.93
2018-08-10T17:04:13.487Z,9.63
2018-08-10T17:06:40.549Z,34.70
2018-08-10T17:09:08.571Z,30.70
2018-08-10T17:11:35.708Z,18.87
2018-08-10T17:14:02.789Z,7.40
2018-08-10T17:16:29.853Z,14.53
2018-08-10T17:18:56.944Z,20.80
2018-08-10T17:21:24.078Z,24.83
2018-08-10T17:23:51.111Z,20.87
2018-08-10T17:26:18.499Z,9.97
2018-08-10T17:28:45.653Z,10.10
2018-08-10T17:31:12.785Z,4.33
2018-08-10T17:33:40.262Z,10.60
2018-08-10T17:36:07.420Z,4.93
2018-08-10T17:38:34.500Z,3.20
2018-08-10T17:41:01.621Z,4.00
2018-08-10T17:43:28.710Z,2.37
2018-08-10T17:45:55.907Z,2.23
2018-08-10T17:48:23.057Z,1.70
2018-08-10T17:50:50.137Z,2.10
2018-08-10T17:53:17.234Z,1.80
2018-08-10T17:55:44.304Z,2.00
2018-08-10T17:58:11.356Z,1.83
2018-08-10T18:00:38.476Z,1.90
2018-08-10T18:03:05.955Z,1.87
2018-08-10T18:05:33.345Z,1.63
2018-08-10T18:08:00.478Z,3.80
2018-08-10T18:10:28.463Z,4.60
2018-08-10T18:12:55.600Z,3.53
2018-08-10T18:15:22.702Z,2.80
2018-08-10T18:17:49.802Z,3.93
2018-08-10T18:20:18.164Z,4.30
2018-08-10T18:22:46.275Z,2.80
2018-08-10T18:27:47.824Z,3.50
2018-08-10T18:30:18.913Z,2.87
2018-08-10T18:32:46.309Z,3.60
2018-08-10T18:35:13.261Z,7.00
2018-08-10T18:37:41.061Z,5.00
2018-08-10T18:40:10.202Z,3.67
2018-08-10T18:42:37.414Z,5.40
2018-08-10T18:45:05.665Z,4.90
2018-08-10T18:47:32.646Z,3.47
2018-08-10T18:49:59.597Z,4.03
2018-08-10T18:52:26.634Z,6.90
2018-08-10T18:54:53.595Z,6.03
2018-08-10T18:57:20.626Z,7.27
2018-08-10T18:59:47.719Z,6.03
2018-08-10T19:02:14.828Z,4.80
2018-08-10T19:04:41.867Z,4.13
2018-08-10T19:07:08.858Z,6.30
2018-08-10T19:09:35.824Z,6.67
2018-08-10T19:12:02.852Z,6.37
2018-08-10T19:14:29.860Z,4.87
2018-08-10T19:16:56.960Z,7.57
2018-08-10T19:19:24.106Z,9.90
2018-08-10T19:21:51.192Z,16.37
2018-08-10T19:24:18.237Z,5.63
2018-08-10T19:26:45.397Z,6.57
2018-08-10T19:29:12.517Z,7.73
2018-08-10T19:31:39.808Z,12.80
2018-08-10T19:34:06.860Z,8.77
2018-08-10T19:36:34.336Z,13.43
2018-08-10T19:39:01.458Z,10.07
2018-08-10T19:41:28.577Z,10.50
2018-08-10T19:43:55.613Z,5.23
2018-08-10T19:46:22.586Z,14.50
2018-08-10T19:48:49.699Z,15.93
2018-08-10T19:51:16.666Z,8.10
2018-08-10T19:53:43.716Z,5.77
2018-08-10T19:56:10.795Z,5.10
2018-08-10T19:58:37.812Z,5.90
2018-08-10T20:01:04.803Z,5.07
2018-08-10T20:03:31.826Z,3.83
2018-08-10T20:05:59.068Z,4.83
2018-08-10T20:08:26.198Z,3.37
2018-08-10T20:10:53.135Z,4.20
2018-08-10T20:13:20.171Z,4.17
2018-08-10T20:15:47.145Z,3.63
2018-08-10T20:18:14.240Z,5.70
2018-08-10T20:20:41.229Z,4.20
2018-08-10T20:23:08.216Z,4.20
2018-08-10T20:25:35.205Z,4.27
2018-08-10T20:28:02.198Z,3.60
2018-08-10T20:30:29.225Z,3.00
2018-08-10T20:32:56.234Z,4.27
2018-08-10T20:35:23.245Z,6.17
2018-08-10T20:37:50.595Z,3.87
2018-08-10T20:40:18.564Z,4.50
2018-08-10T20:42:46.281Z,6.20
2018-08-10T20:45:13.720Z,6.40
2018-08-10T20:47:40.770Z,7.10
2018-08-10T20:50:10.353Z,4.87
2018-08-10T20:52:37.422Z,4.93
2018-08-10T20:55:04.450Z,5.10
2018-08-10T20:57:31.454Z,5.53
2018-08-10T20:59:58.465Z,4.80
2018-08-10T21:02:25.477Z,5.07
2018-08-10T21:04:52.458Z,5.27
2018-08-10T21:07:19.433Z,5.67
2018-08-10T21:09:46.487Z,6.90
2018-08-10T21:12:13.504Z,6.77
2018-08-10T21:14:40.439Z,7.03
2018-08-10T21:17:07.491Z,6.47
2018-08-10T21:19:34.449Z,6.87
2018-08-10T21:22:01.423Z,4.80
2018-08-10T21:24:28.429Z,5.33
2018-08-10T21:26:55.423Z,5.83
2018-08-10T21:29:22.407Z,4.47
2018-08-10T21:31:49.752Z,4.90
2018-08-10T21:34:16.855Z,5.07
2018-08-10T21:36:43.879Z,4.17
2018-08-10T21:39:11.982Z,5.00
2018-08-10T21:41:39.035Z,4.70
2018-08-10T21:44:06.109Z,4.30
2018-08-10T21:46:33.191Z,4.27
2018-08-10T21:49:00.182Z,4.70
2018-08-10T21:51:27.113Z,4.50
2018-08-10T21:53:54.130Z,4.40
2018-08-10T21:56:21.117Z,4.50
2018-08-10T21:58:48.188Z,4.17
2018-08-10T22:01:15.317Z,4.27
2018-08-10T22:03:42.295Z,4.00
2018-08-10T22:06:09.347Z,4.50
2018-08-10T22:08:36.672Z,5.00
2018-08-10T22:11:03.674Z,3.90
2018-08-10T22:13:36.660Z,3.87
2018-08-10T22:16:09.497Z,4.73
2018-08-10T22:18:42.447Z,5.13
2018-08-10T22:21:09.443Z,4.90
2018-08-10T22:23:36.411Z,4.80
2018-08-10T22:26:03.488Z,5.70
2018-08-10T22:28:30.465Z,5.53
2018-08-10T22:30:57.433Z,6.83
2018-08-10T22:33:24.709Z,6.30
2018-08-10T22:35:51.749Z,6.20
2018-08-10T22:38:18.771Z,6.17
2018-08-10T22:40:45.792Z,5.63
2018-08-10T22:43:12.792Z,5.60
2018-08-10T22:45:40.502Z,5.30
2018-08-10T22:48:07.606Z,4.43
2018-08-10T22:50:34.605Z,5.03
2018-08-10T22:53:01.654Z,3.80
2018-08-10T22:55:28.654Z,4.40
2018-08-10T22:57:55.685Z,4.90
2018-08-10T23:00:22.733Z,4.77
2018-08-10T23:02:50.132Z,4.60
2018-08-10T23:05:17.094Z,4.30
2018-08-10T23:07:44.118Z,5.07
2018-08-10T23:10:11.983Z,4.23
2018-08-10T23:12:39.230Z,4.80
2018-08-10T23:15:06.546Z,5.10
2018-08-10T23:17:33.602Z,4.30
2018-08-10T23:20:00.550Z,4.00
2018-08-10T23:22:27.605Z,3.77
2018-08-10T23:24:54.675Z,3.60
2018-08-10T23:27:21.658Z,3.70
2018-08-10T23:29:48.653Z,4.00
2018-08-10T23:32:15.805Z,3.00
2018-08-10T23:34:42.835Z,3.20
2018-08-10T23:37:09.801Z,3.30
2018-08-10T23:39:36.757Z,3.50
2018-08-10T23:42:03.790Z,3.33
2018-08-10T23:44:30.773Z,2.93
2018-08-10T23:46:57.859Z,3.10
2018-08-10T23:49:24.896Z,2.90
2018-08-10T23:51:51.955Z,3.03
2018-08-10T23:54:18.921Z,3.00
2018-08-10T23:56:45.913Z,3.27
2018-08-10T23:59:12.955Z,2.93
